Data for 06/09/2009

Time Sea-Level Adjusted Pressure Absolute Pressure Temperature Relative Humidity Dew Point   
(mb) (inHg) (mb) (inHg) (C) (F) (%) (C) (F)
00:05 1014 29.94 844 24.92 5.2 41.4 86 3.1 37.6
00:10 1015 29.97 844 24.92 5.2 41.4 86 3.1 37.6
00:15 1015 29.97 844 24.92 5.3 41.5 86 3.1 37.6
00:20 1015 29.97 844 24.92 5.3 41.5 86 3.2 37.7
00:25 1015 29.97 844 24.92 5.2 41.4 87 3.3 37.9
00:30 1015 29.97 844 24.92 5.1 41.3 87 3.2 37.8
00:35 1015 29.97 844 24.92 5.1 41.2 88 3.2 37.8
00:40 1015 29.97 844 24.92 5.1 41.2 87 3.2 37.8
00:45 1015 29.97 844 24.92 5.1 41.2 87 3.2 37.8
00:50 1015 29.97 844 24.92 5.1 41.2 88 3.2 37.8
00:55 1015 29.97 844 24.92 5.3 41.6 87 3.3 37.9
01:00 1015 29.97 844 24.92 5.6 42 85 3.3 37.9
01:05 1015 29.97 844 24.92 5.7 42.2 85 3.4 38.1
01:10 1015 29.97 844 24.92 5.6 42 86 3.4 38.2
01:15 1015 29.97 844 24.92 5.5 41.8 86 3.4 38
01:20 1015 29.97 844 24.92 5.4 41.8 86 3.4 38.1
01:25 1015 29.97 844 24.92 5.4 41.7 86 3.3 37.9
01:30 1015 29.97 844 24.92 5.4 41.6 86 3.3 37.9
01:35 1015 29.97 844 24.92 5.3 41.5 87 3.3 38
01:40 1015 29.97 844 24.92 5.2 41.4 88 3.4 38.1
01:45 1015 29.97 844 24.92 5.1 41.2 89 3.5 38.3
01:50 1015 29.97 844 24.92 5.1 41.2 89 3.5 38.3
01:55 1015 29.97 844 24.92 5.1 41.2 89 3.4 38.2
02:00 1015 29.97 844 24.92 5 41 90 3.4 38.2
02:05 1015 29.97 844 24.92 4.9 40.8 90 3.4 38.1
02:10 1015 29.97 844 24.92 4.8 40.6 91 3.4 38.1
02:15 1015 29.97 844 24.92 4.7 40.5 91 3.3 38
02:20 1015 29.97 844 24.92 4.5 40.2 91 3.2 37.8
02:25 1015 29.97 844 24.92 4.5 40.1 92 3.3 38
02:30 1015 29.97 844 24.92 4.4 39.9 92 3.2 37.8
02:35 1015 29.97 844 24.92 4.3 39.8 93 3.2 37.8
02:40 1015 29.97 844 24.92 4.4 39.9 92 3.2 37.8
02:45 1015 29.97 844 24.92 4.3 39.7 92 3 37.4
02:50 1015 29.97 844 24.92 4.2 39.5 92 3 37.4
02:55 1015 29.97 844 24.92 4.2 39.5 93 3.1 37.5
03:00 1015 29.97 844 24.92 4.2 39.5 93 3.2 37.7
03:05 1015 29.97 844 24.92 4.1 39.4 94 3.2 37.7
03:10 1015 29.97 845 24.95 4.1 39.3 94 3.2 37.8
03:15 1015 29.97 845 24.95 4 39.3 94 3.2 37.8
03:20 1015 29.97 845 24.95 4 39.1 94 3.1 37.7
03:25 1015 29.97 845 24.95 3.9 38.9 95 3.1 37.6
03:30 1015 29.97 845 24.95 3.8 38.9 94 3 37.3
03:35 1015 29.97 845 24.95 3.7 38.7 95 3.1 37.5
03:40 1016 30 845 24.95 3.8 38.8 96 3.1 37.6
03:45 1016 30 845 24.95 3.8 38.8 96 3.1 37.7
03:50 1016 30 845 24.95 3.8 38.9 95 3.1 37.6
03:55 1015 29.97 845 24.95 3.8 38.8 95 3 37.4
04:00 1015 29.97 845 24.95 3.9 39 95 3.1 37.6
04:05 1015 29.97 845 24.95 3.9 38.9 94 3 37.4
04:10 1015 29.97 845 24.95 3.7 38.6 94 2.8 37.1
04:15 1015 29.97 845 24.95 3.6 38.4 95 2.8 37.1
04:20 1016 30 845 24.95 3.6 38.5 95 2.9 37.2
04:25 1016 30 845 24.95 3.6 38.5 95 2.8 37.1
04:30 1016 30 845 24.95 3.6 38.5 94 2.8 37
04:35 1016 30 845 24.95 3.6 38.6 93 2.6 36.6
04:40 1016 30 845 24.95 3.5 38.4 91 2.3 36.1
04:45 1016 30 845 24.95 3.4 38.2 91 2.2 35.9
04:50 1016 30 845 24.95 3.4 38.1 93 2.3 36.2
04:55 1016 30 845 24.95 3.4 38.1 92 2.2 36
05:00 1016 30 845 24.95 3.4 38.1 92 2.3 36.1
05:05 1016 30 845 24.95 3.4 38.2 92 2.2 35.9
05:10 1016 30 845 24.95 3.4 38.1 91 2.1 35.7
05:15 1016 30 845 24.95 3.3 38 92 2.1 35.7
05:20 1016 30 845 24.95 3.3 37.9 92 2.1 35.7
05:25 1016 30 845 24.95 3.2 37.8 92 2 35.6
05:30 1016 30 845 24.95 3.4 38.1 91 2.1 35.8
05:35 1016 30 845 24.95 3.5 38.3 91 2.2 35.9
05:40 1016 30 845 24.95 3.5 38.3 91 2.2 35.9
05:45 1016 30 845 24.95 3.4 38.2 91 2 35.7
05:50 1016 30 845 24.95 3.4 38.2 91 2.1 35.8
05:55 1016 30 845 24.95 3.5 38.3 91 2.2 36
06:00 1016 30 845 24.95 3.5 38.2 91 2.1 35.7
06:05 1016 30 845 24.95 3.6 38.4 91 2.3 36.1
06:10 1016 30 845 24.95 3.7 38.7 91 2.4 36.2
06:15 1016 30 845 24.95 3.9 38.9 90 2.4 36.2
06:20 1016 30 845 24.95 3.9 39.1 90 2.4 36.3
06:25 1016 30 845 24.95 4 39.3 90 2.6 36.6
06:30 1016 30 845 24.95 4.1 39.3 89 2.4 36.3
06:35 1016 30 845 24.95 4 39.2 89 2.3 36.1
06:40 1016 30 845 24.95 3.8 38.9 90 2.3 36.1
06:45 1016 30 846 24.98 3.9 39 89 2.3 36.2
06:50 1016 30 846 24.98 4 39.1 90 2.4 36.4
06:55 1016 30 846 24.98 4 39.2 90 2.5 36.5
07:00 1017 30.03 846 24.98 4.1 39.4 90 2.6 36.6
07:05 1017 30.03 846 24.98 4.1 39.4 89 2.5 36.5
07:10 1017 30.03 846 24.98 4.1 39.4 89 2.5 36.5
07:15 1017 30.03 846 24.98 4.1 39.5 89 2.5 36.5
07:20 1017 30.03 846 24.98 4.2 39.6 90 2.7 36.8
07:25 1017 30.03 846 24.98 4.3 39.8 87 2.4 36.3
07:30 1017 30.03 846 24.98 4.3 39.7 89 2.6 36.7
07:35 1017 30.03 846 24.98 4.4 39.9 89 2.7 36.8
07:40 1017 30.03 846 24.98 4.6 40.3 87 2.7 36.8
07:45 1017 30.03 846 24.98 4.8 40.6 87 2.8 37.1
07:50 1017 30.03 846 24.98 5.1 41.2 86 2.9 37.3
07:55 1017 30.03 846 24.98 5.2 41.4 86 3.1 37.5
08:00 1017 30.03 846 24.98 5.4 41.8 84 3 37.3
08:05 1017 30.03 846 24.98 5.6 42.1 84 3 37.5
08:10 1017 30.03 846 24.98 5.6 42.2 83 2.9 37.3
08:15 1017 30.03 846 24.98 5.7 42.2 81 2.6 36.7
08:20 1017 30.03 846 24.98 5.7 42.2 82 2.9 37.2
08:25 1017 30.03 846 24.98 5.9 42.7 81 2.9 37.2
08:30 1017 30.03 846 24.98 6.2 43.1 80 3 37.4
08:35 1017 30.03 846 24.98 6.2 43.2 80 3 37.3
08:40 1017 30.03 846 24.98 6.5 43.7 77 2.8 37.1
08:45 1017 30.03 846 24.98 6.8 44.2 76 2.8 37
08:50 1017 30.03 846 24.98 6.6 44 75 2.5 36.4
08:55 1017 30.03 846 24.98 6.2 43.2 79 2.9 37.3
09:00 1017 30.03 846 24.98 6.3 43.3 75 2.2 35.9
09:05 1017 30.03 846 24.98 6.6 44 73 2.1 35.8
09:10 1017 30.03 846 24.98 6.2 43.2 76 2.3 36.2
09:15 1017 30.03 846 24.98 6.1 43 73 1.7 35
09:20 1017 30.03 846 24.98 6.8 44.2 71 1.8 35.3
09:25 1017 30.03 846 24.98 7.2 45 70 2.1 35.9
09:30 1017 30.03 846 24.98 6.8 44.3 70 1.7 35
09:35 1017 30.03 846 24.98 6.4 43.5 69 1.2 34.2
09:40 1017 30.03 846 24.98 6.5 43.7 68 1 33.9
09:45 1017 30.03 846 24.98 7 44.6 68 1.6 34.8
09:50 1017 30.03 846 24.98 7.3 45.2 65 1.1 34
09:55 1017 30.03 847 25.01 7.1 44.8 64 0.9 33.6
10:00 1017 30.03 847 25.01 7.4 45.2 64 1 33.8
10:05 1017 30.03 847 25.01 6.7 44.1 64 0.5 32.9
10:10 1017 30.03 847 25.01 7.3 45.1 60 0.1 32.3
10:15 1017 30.03 847 25.01 7.9 46.1 60 0.6 33.1
10:20 1017 30.03 847 25.01 7.8 46 62 0.9 33.6
10:25 1017 30.03 847 25.01 7.7 45.8 62 1 33.7
10:30 1017 30.03 847 25.01 8.3 46.9 60 1 33.8
10:35 1017 30.03 847 25.01 8.8 47.8 58 0.9 33.6
10:40 1017 30.03 847 25.01 8.6 47.5 57 0.7 33.2
10:45 1017 30.03 847 25.01 8.1 46.5 58 0.3 32.5
10:50 1017 30.03 847 25.01 9 48.3 55 0.5 32.9
10:55 1017 30.03 846 24.98 9.8 49.6 53 0.7 33.3
11:00 1017 30.03 846 24.98 10.1 50.1 53 1 33.8
11:05 1017 30.03 847 25.01 10.1 50.1 51 0.4 32.6
11:10 1017 30.03 847 25.01 10.1 50.3 50 0.3 32.6
11:15 1017 30.03 847 25.01 10.3 50.5 51 0.6 33
11:20 1017 30.03 847 25.01 10.3 50.5 52 0.8 33.5
11:25 1017 30.03 847 25.01 9.9 49.8 52 0.5 32.9
11:30 1017 30.03 847 25.01 10.4 50.6 52 0.9 33.6
11:35 1017 30.03 847 25.01 9.9 49.8 52 0.7 33.2
11:40 1017 30.03 846 24.98 9.6 49.3 53 0.4 32.8
11:45 1017 30.03 846 24.98 10.5 50.8 48 0 32
11:50 1017 30.03 846 24.98 10.8 51.5 48 0.3 32.6
11:55 1017 30.03 846 24.98 10.6 51.1 51 0.9 33.5
12:00 1017 30.03 846 24.98 11.6 52.8 46 0.3 32.6
12:05 1017 30.03 846 24.98 11.1 51.9 49 0.8 33.4
12:10 1017 30.03 846 24.98 9.9 49.8 51 0.3 32.6
12:15 1017 30.03 846 24.98 10.4 50.8 48 -0.1 31.8
12:20 1017 30.03 846 24.98 10.6 51 52 1.1 34
12:25 1017 30.03 846 24.98 10.9 51.5 48 0.4 32.8
12:30 1017 30.03 846 24.98 11.6 52.8 46 0.5 33
12:35 1017 30.03 846 24.98 11.3 52.4 49 1.1 34
12:40 1017 30.03 846 24.98 10.5 50.8 51 0.7 33.3
12:45 1017 30.03 846 24.98 11.5 52.7 45 -0 31.9
12:50 1017 30.03 846 24.98 12.5 54.4 42 0 32
12:55 1017 30.03 846 24.98 12.7 54.9 43 0.5 33
13:00 1017 30.03 846 24.98 12 53.6 45 0.4 32.7
13:05 1017 30.03 846 24.98 12.4 54.3 41 -0.3 31.5
13:10 1017 30.03 846 24.98 12.5 54.5 42 0 32
13:15 1017 30.03 846 24.98 11.9 53.4 42 -0.6 31
13:20 1017 30.03 846 24.98 12.2 53.9 45 0.7 33.2
13:25 1017 30.03 846 24.98 12.5 54.4 42 0 32.1
13:30 1017 30.03 846 24.98 12.5 54.6 42 0.2 32.3
13:35 1017 30.03 846 24.98 12.8 55.1 43 0.5 32.9
13:40 1017 30.03 846 24.98 12.6 54.7 40 -0.4 31.2
13:45 1017 30.03 846 24.98 13.6 56.4 39 -0.1 31.8
13:50 1017 30.03 846 24.98 14.3 57.7 38 0.2 32.4
13:55 1017 30.03 846 24.98 14.4 57.9 38 0.3 32.6
14:00 1016 30 846 24.98 14.1 57.4 40 0.7 33.2
14:05 1016 30 846 24.98 12.3 54.2 44 0.4 32.7
14:10 1016 30 846 24.98 13.2 55.7 39 -0.3 31.5
14:15 1016 30 846 24.98 14.1 57.4 38 0 32.1
14:20 1016 30 845 24.95 14.2 57.5 39 0.6 33
14:25 1016 30 845 24.95 13.8 56.9 38 -0 32
14:30 1016 30 845 24.95 14.5 58.2 38 0.5 32.9
14:35 1016 30 845 24.95 14.2 57.6 38 0.3 32.5
14:40 1016 30 845 24.95 13.1 55.5 41 0.2 32.4
14:45 1016 30 845 24.95 12.8 55 41 -0.1 31.8
14:50 1016 30 845 24.95 13.4 56.2 40 0.2 32.3
14:55 1016 30 845 24.95 12.7 54.9 44 0.7 33.3
15:00 1016 30 845 24.95 12.9 55.2 40 -0.2 31.6
15:05 1016 30 845 24.95 12.6 54.6 43 0.4 32.7
15:10 1016 30 845 24.95 12.8 55 42 0.4 32.6
15:15 1016 30 845 24.95 13.8 56.8 38 -0.2 31.6
15:20 1016 30 845 24.95 13.9 57 42 1.2 34.1
15:25 1016 30 845 24.95 13.9 56.9 37 -0.7 30.8
15:30 1016 30 845 24.95 14.2 57.5 36 -0.6 30.9
15:35 1016 30 845 24.95 14.6 58.3 37 0.1 32.2
15:40 1016 30 845 24.95 14.5 58.1 36 -0.4 31.2
15:45 1016 30 845 24.95 14.4 57.9 35 -0.6 30.9
15:50 1016 30 845 24.95 14.6 58.3 33 -1.4 29.5
15:55 1016 30 845 24.95 14.4 58 36 -0.5 31.1
16:00 1016 30 845 24.95 14.2 57.5 34 -1.3 29.7
16:05 1016 30 845 24.95 15 59 31 -1.8 28.7
16:10 1016 30 845 24.95 15.3 59.5 35 -0.2 31.7
16:15 1016 30 845 24.95 14.3 57.7 33 -1.7 29
16:20 1015 29.97 845 24.95 13.6 56.4 33 -2.4 27.8
16:25 1015 29.97 845 24.95 14.2 57.5 32 -2.1 28.2
16:30 1015 29.97 845 24.95 15 59.1 32 -1.5 29.3
16:35 1015 29.97 845 24.95 15.5 60 31 -1.5 29.3
16:40 1015 29.97 845 24.95 15.5 60 32 -1 30.1
16:45 1015 29.97 845 24.95 15.5 59.9 31 -1.3 29.7
16:50 1015 29.97 845 24.95 15.2 59.4 31 -1.5 29.3
16:55 1015 29.97 845 24.95 14.9 58.9 31 -1.9 28.6
17:00 1015 29.97 845 24.95 15.3 59.5 32 -1.3 29.6
17:05 1015 29.97 844 24.92 15.3 59.6 30 -2.2 28.1
17:10 1015 29.97 844 24.92 15.4 59.7 30 -2.2 28.1
17:15 1015 29.97 844 24.92 15.9 60.6 31 -1.2 29.8
17:20 1015 29.97 844 24.92 16 60.8 27 -2.8 26.9
17:25 1015 29.97 844 24.92 15.2 59.4 28 -3 26.7
17:30 1015 29.97 844 24.92 15.8 60.4 28 -2.7 27.1
17:35 1015 29.97 844 24.92 16.2 61.1 27 -3 26.6
17:40 1015 29.97 844 24.92 16.4 61.4 25 -3.8 25.2
17:45 1015 29.97 844 24.92 16.2 61.1 26 -3.5 25.7
17:50 1015 29.97 844 24.92 16.3 61.3 25 -3.6 25.5
17:55 1015 29.97 844 24.92 16.8 62.3 26 -2.9 26.7
18:00 1015 29.97 844 24.92 16.6 61.9 25 -3.6 25.5
18:05 1015 29.97 844 24.92 17 62.6 25 -3.2 26.2
18:10 1015 29.97 844 24.92 16.6 62 27 -2.3 27.8
18:15 1015 29.97 844 24.92 15.4 59.7 28 -3 26.6
18:20 1015 29.97 844 24.92 15.4 59.7 29 -2.5 27.4
18:25 1015 29.97 844 24.92 15.4 59.7 28 -3.1 26.4
18:30 1015 29.97 844 24.92 15 58.9 30 -2.6 27.4
18:35 1015 29.97 844 24.92 14.6 58.4 29 -3 26.6
18:40 1015 29.97 844 24.92 14.4 57.8 30 -2.8 27
18:45 1015 29.97 844 24.92 14.9 58.8 30 -2.6 27.2
18:50 1015 29.97 844 24.92 14.9 58.9 29 -2.9 26.7
18:55 1015 29.97 844 24.92 15.3 59.6 28 -3.2 26.3
19:00 1015 29.97 844 24.92 15.6 60 27 -3.4 25.9
19:05 1015 29.97 844 24.92 15.4 59.7 27 -3.6 25.6
19:10 1015 29.97 844 24.92 14.4 57.8 28 -4.1 24.7
19:15 1015 29.97 844 24.92 14 57.2 28 -4.1 24.7
19:20 1015 29.97 844 24.92 13.8 56.8 48 2.9 37.3
19:25 1015 29.97 844 24.92 12.5 54.4 53 3.2 37.8
19:30 1015 29.97 844 24.92 11.9 53.5 55 3.1 37.6
19:35 1015 29.97 844 24.92 11.8 53.3 56 3.3 37.9
19:40 1015 29.97 844 24.92 11.7 53.1 56 3.2 37.8
19:45 1015 29.97 844 24.92 11.4 52.6 57 3.3 37.9
19:50 1015 29.97 844 24.92 11.4 52.5 58 3.4 38.2
19:55 1015 29.97 844 24.92 11.3 52.3 57 3.2 37.7
20:00 1015 29.97 844 24.92 11.1 51.9 58 3.1 37.7
20:05 1015 29.97 844 24.92 11 51.7 60 3.5 38.2
20:10 1015 29.97 844 24.92 10.8 51.5 61 3.7 38.7
20:15 1015 29.97 844 24.92 10.7 51.2 60 3.4 38.1
20:20 1015 29.97 844 24.92 10.5 50.8 61 3.2 37.8
20:25 1015 29.97 844 24.92 10.4 50.6 61 3.2 37.7
20:30 1015 29.97 844 24.92 10.2 50.3 61 3.1 37.6
20:35 1015 29.97 844 24.92 10 50 62 3.1 37.6
20:40 1015 29.97 844 24.92 9.9 49.7 63 3.2 37.7
20:45 1015 29.97 844 24.92 9.7 49.5 64 3.2 37.8
20:50 1015 29.97 844 24.92 9.6 49.3 64 3.2 37.8
20:55 1015 29.97 844 24.92 9.4 49 65 3.2 37.8
21:00 1015 29.97 844 24.92 9.4 48.8 65 3.1 37.6
21:05 1015 29.97 844 24.92 9.2 48.6 66 3.2 37.8
21:10 1015 29.97 844 24.92 9.1 48.3 66 3.2 37.7
21:15 1015 29.97 844 24.92 9 48.1 67 3.1 37.6
21:20 1015 29.97 844 24.92 8.9 48 68 3.2 37.8
21:25 1015 29.97 844 24.92 8.8 47.8 68 3.1 37.6
21:30 1015 29.97 844 24.92 8.7 47.6 67 2.9 37.3
21:35 1015 29.97 844 24.92 8.6 47.5 66 2.7 36.9
21:40 1015 29.97 844 24.92 8.6 47.5 65 2.5 36.5
21:45 1015 29.97 845 24.95 8.6 47.4 66 2.6 36.6
21:50 1015 29.97 845 24.95 8.5 47.3 67 2.7 36.9
21:55 1015 29.97 845 24.95 8.4 47.1 67 2.7 36.9
22:00 1016 30 845 24.95 8.4 47 68 2.8 37.1
22:05 1016 30 845 24.95 8.3 46.9 68 2.8 37.1
22:10 1016 30 845 24.95 8.2 46.7 70 3 37.3
22:15 1016 30 845 24.95 8.1 46.5 71 3.1 37.6
22:20 1016 30 845 24.95 8 46.4 71 3.2 37.7
22:25 1015 29.97 845 24.95 7.9 46.2 72 3.2 37.7
22:30 1016 30 845 24.95 7.8 46.1 72 3.2 37.7
22:35 1016 30 845 24.95 7.8 46 72 3.1 37.6
22:40 1016 30 845 24.95 7.7 45.9 72 3.1 37.5
22:45 1016 30 845 24.95 7.7 45.8 72 2.9 37.3
22:50 1016 30 845 24.95 7.7 45.8 72 3 37.4
22:55 1016 30 845 24.95 7.6 45.6 73 3 37.5
23:00 1016 30 845 24.95 7.4 45.4 74 3.1 37.6
23:05 1016 30 845 24.95 7.3 45.2 75 3.1 37.6
23:10 1016 30 845 24.95 7.3 45.1 75 3.1 37.6
23:15 1016 30 845 24.95 7.2 44.9 76 3.2 37.7
23:20 1016 30 845 24.95 7.1 44.7 76 3.1 37.6
23:25 1016 30 845 24.95 7 44.7 76 3.1 37.5
23:30 1015 29.97 845 24.95 7 44.6 76 3 37.5
23:35 1016 30 845 24.95 7 44.6 76 3.1 37.5
23:40 1016 30 845 24.95 7 44.6 76 3 37.4
23:45 1016 30 845 24.95 7 44.7 76 3.1 37.5
23:50 1016 30 845 24.95 7 44.6 76 3.1 37.5
23:55 1016 30 845 24.95 7 44.6 76 3 37.4
24:00 1016 30 845 24.95 7 44.5 76 3 37.4